Time;durP1;ratioP1;P1;durP2;ratioP2;P2;SDS_P1;SDS_P2;PMS_P1;PMS_P2;Temp;Humidity;BMP_temperature;BMP_pressure;BME280_temperature;BME280_humidity;BME280_pressure;Samples;Min_cycle;Max_cycle;Signal;HPM_P1;HPM_P2
2021/12/23 00:04:15;;;;;;;35.70;18.50;;;;;;;-6.58;100.00;101452.88;10368771;28;20079;-85
2021/12/23 00:09:16;;;;;;;34.77;17.63;;;;;;;-5.25;100.00;101588.09;10343694;28;20044;-85
2021/12/23 00:14:17;;;;;;;30.40;16.77;;;;;;;-6.60;100.00;101454.84;10328103;28;20030;-92
2021/12/23 00:24:22;;;;;;;37.57;18.27;;;;;;;-6.64;100.00;101448.03;10330943;28;20046;-93
2021/12/23 00:29:23;;;;;;;32.30;16.67;;;;;;;-6.90;100.00;101384.13;10345415;28;20466;-92
2021/12/23 00:34:24;;;;;;;36.33;17.83;;;;;;;-8.56;100.00;101168.69;10328574;28;20042;-93
2021/12/23 00:39:26;;;;;;;36.83;16.47;;;;;;;-7.76;100.00;101174.63;10313201;28;20065;-93
2021/12/23 00:44:26;;;;;;;31.43;16.30;;;;;;;-6.39;100.00;101353.88;10345751;28;20135;-93
2021/12/23 00:49:27;;;;;;;33.07;17.23;;;;;;;-3.69;100.00;101905.94;10312818;28;20064;-93
2021/12/23 00:54:27;;;;;;;31.23;15.57;;;;;;;-5.31;100.00;101585.94;10328178;28;20085;-93
2021/12/23 00:59:28;;;;;;;30.57;16.97;;;;;;;-7.44;100.00;101229.88;10311753;28;20038;-84
2021/12/23 01:04:29;;;;;;;35.30;17.73;;;;;;;-9.84;100.00;100770.09;10341820;28;20038;-85
2021/12/23 01:09:29;;;;;;;35.77;17.50;;;;;;;-4.60;100.00;101566.25;10332534;28;20045;-84
2021/12/23 01:14:40;;;;;;;32.13;17.40;;;;;;;-6.88;100.00;101338.47;10347671;28;20042;-85
2021/12/23 01:19:49;;;;;;;31.10;15.63;;;;;;;-5.61;100.00;101359.56;10312187;28;20064;-84
2021/12/23 01:24:50;;;;;;;25.53;15.20;;;;;;;-8.29;100.00;100988.44;10345216;28;20049;-93
2021/12/23 01:29:50;;;;;;;30.03;15.83;;;;;;;-5.96;100.00;101314.47;10311381;28;20049;-93
2021/12/23 01:34:51;;;;;;;29.80;15.93;;;;;;;-5.56;100.00;101537.06;10327574;28;20095;-93
2021/12/23 01:39:51;;;;;;;27.80;14.87;;;;;;;-9.30;100.00;100763.03;10310873;28;20088;-92
2021/12/23 01:44:52;;;;;;;28.83;15.80;;;;;;;-8.27;100.00;101009.66;10382259;28;20044;-91
2021/12/23 01:49:52;;;;;;;26.63;15.43;;;;;;;-7.95;100.00;100997.09;10324147;28;20139;-93
2021/12/23 01:54:54;;;;;;;30.63;16.20;;;;;;;-4.08;100.00;101502.31;10343678;28;20152;-93
2021/12/23 01:59:54;;;;;;;22.80;13.53;;;;;;;-5.65;100.00;101368.88;10325388;28;20037;-84
2021/12/23 02:04:55;;;;;;;24.33;13.13;;;;;;;-5.27;100.00;101359.22;10326883;28;20069;-93
2021/12/23 02:09:56;;;;;;;27.47;16.07;;;;;;;-7.85;100.00;101028.38;10326483;28;20446;-93
2021/12/23 02:14:56;;;;;;;30.70;15.93;;;;;;;-5.57;100.00;101217.97;10327246;28;20103;-93
2021/12/23 02:19:57;;;;;;;25.40;14.40;;;;;;;-2.92;100.00;101661.91;10326427;28;20088;-94
2021/12/23 02:24:57;;;;;;;25.47;15.37;;;;;;;-5.78;100.00;101301.22;10328463;28;20065;-85
2021/12/23 02:29:58;;;;;;;29.27;15.80;;;;;;;-6.90;100.00;100827.38;10323420;28;20064;-84
2021/12/23 02:34:59;;;;;;;27.40;15.73;;;;;;;-5.10;100.00;101294.09;10323638;28;20058;-85
2021/12/23 02:39:59;;;;;;;29.27;15.40;;;;;;;-9.26;100.00;100364.53;10348669;28;20497;-84
2021/12/23 02:45:01;;;;;;;35.33;15.83;;;;;;;-7.98;100.00;100804.13;10365051;28;20029;-84
2021/12/23 02:50:03;;;;;;;32.33;18.77;;;;;;;-6.10;100.00;101055.69;10347639;28;20380;-84
2021/12/23 02:55:04;;;;;;;25.10;14.43;;;;;;;-8.08;100.00;100804.13;10363922;28;20072;-84
2021/12/23 03:00:06;;;;;;;23.27;13.83;;;;;;;-5.50;100.00;101080.44;10370827;28;20392;-84
2021/12/23 03:05:07;;;;;;;23.90;13.83;;;;;;;-6.79;100.00;100821.84;10344465;28;20453;-84
2021/12/23 03:10:08;;;;;;;23.20;13.90;;;;;;;-4.55;100.00;101112.56;10352817;28;20042;-84
2021/12/23 03:15:09;;;;;;;25.07;14.40;;;;;;;-2.47;100.00;101435.50;10354238;28;20065;-84
2021/12/23 03:20:10;;;;;;;24.73;14.03;;;;;;;-4.68;100.00;101070.75;10354555;28;20059;-84
2021/12/23 03:25:10;;;;;;;21.27;13.83;;;;;;;-5.15;100.00;101121.84;10388527;28;20480;-84
2021/12/23 03:30:11;;;;;;;26.20;13.40;;;;;;;-6.03;100.00;100938.03;10354317;28;20419;-84
2021/12/23 03:35:12;;;;;;;24.00;12.93;;;;;;;-7.51;100.00;100863.22;10346538;28;20104;-84
2021/12/23 03:40:12;;;;;;;30.97;15.90;;;;;;;-6.81;100.00;100751.53;10353305;28;20044;-84
2021/12/23 03:45:13;;;;;;;27.33;14.97;;;;;;;-4.36;100.00;101174.28;10353563;28;20029;-84
2021/12/23 03:50:14;;;;;;;24.27;14.13;;;;;;;-4.37;100.00;101136.78;10336904;28;20042;-84
2021/12/23 03:55:15;;;;;;;24.23;14.57;;;;;;;-4.80;100.00;101038.91;10328727;28;20073;-84
2021/12/23 04:00:17;;;;;;;28.10;15.33;;;;;;;-4.95;100.00;101025.97;10344837;28;20720;-84
2021/12/23 04:05:17;;;;;;;30.90;16.10;;;;;;;-7.29;100.00;100613.38;10327895;28;20065;-84
2021/12/23 04:10:21;;;;;;;25.53;13.77;;;;;;;-6.41;100.00;100889.72;10342553;28;20509;-83
2021/12/23 04:15:21;;;;;;;25.20;13.37;;;;;;;-7.55;100.00;100693.34;10327378;28;20124;-83
2021/12/23 04:20:32;;;;;;;30.47;15.67;;;;;;;-5.22;100.00;101023.28;10329605;28;20116;-92
2021/12/23 04:25:33;;;;;;;23.67;14.33;;;;;;;-4.00;100.00;101080.22;10317417;28;20042;-92
2021/12/23 04:30:33;;;;;;;25.90;14.67;;;;;;;-5.08;100.00;100983.38;10329499;28;20077;-92
2021/12/23 04:35:34;;;;;;;24.97;13.97;;;;;;;-4.58;100.00;100998.16;10332720;28;20132;-92
2021/12/23 04:40:35;;;;;;;23.87;15.10;;;;;;;-7.47;100.00;100648.03;10332981;28;20029;-92
2021/12/23 04:45:36;;;;;;;23.97;14.10;;;;;;;-4.15;100.00;101140.91;10330225;28;20033;-92
2021/12/23 04:50:36;;;;;;;25.07;14.07;;;;;;;-5.56;100.00;101030.03;10312715;28;20034;-92
2021/12/23 04:55:37;;;;;;;22.03;13.37;;;;;;;-5.66;100.00;100747.63;10312990;28;20462;-92
2021/12/23 05:00:37;;;;;;;28.80;14.13;;;;;;;-5.02;100.00;100928.22;10328396;28;20107;-92
2021/12/23 05:05:40;;;;;;;26.63;13.93;;;;;;;-7.70;100.00;100489.78;10313318;28;20076;-92
2021/12/23 05:10:41;;;;;;;22.77;13.43;;;;;;;-6.47;100.00;100622.44;10312173;28;20026;-91
2021/12/23 05:15:41;;;;;;;26.93;14.03;;;;;;;-4.28;100.00;101169.00;10311679;28;20041;-93
2021/12/23 05:20:42;;;;;;;25.37;13.27;;;;;;;-4.19;100.00;100954.00;10311568;28;20057;-92
2021/12/23 05:25:43;;;;;;;26.73;14.83;;;;;;;-4.68;100.00;100963.31;10311275;28;20061;-92
2021/12/23 05:30:43;;;;;;;28.00;14.47;;;;;;;-3.92;100.00;101085.66;10311548;28;20104;-93
2021/12/23 05:35:44;;;;;;;25.87;14.23;;;;;;;-6.16;100.00;100849.88;10311799;28;20038;-93
2021/12/23 05:40:44;;;;;;;25.27;13.73;;;;;;;-8.06;100.00;100524.34;10311091;28;20390;-93
2021/12/23 05:45:45;;;;;;;23.73;14.10;;;;;;;-4.19;100.00;101113.47;10310721;28;20029;-93
2021/12/23 05:50:45;;;;;;;23.57;14.63;;;;;;;-3.53;100.00;101136.44;10311717;28;20157;-92
2021/12/23 05:55:46;;;;;;;20.90;12.03;;;;;;;-5.58;100.00;100935.47;10309837;28;20116;-92
2021/12/23 06:00:46;;;;;;;26.03;15.03;;;;;;;-3.75;100.00;101104.63;10326023;28;20049;-93
2021/12/23 06:05:47;;;;;;;23.43;14.90;;;;;;;-8.35;100.00;100359.66;10325129;28;20036;-88
2021/12/23 06:10:47;;;;;;;25.83;13.70;;;;;;;-4.05;100.00;100878.16;10325267;28;20037;-89
2021/12/23 06:15:48;;;;;;;23.57;14.00;;;;;;;-4.55;100.00;100854.63;10309827;28;20042;-90
2021/12/23 06:20:48;;;;;;;27.30;15.17;;;;;;;-6.61;100.00;100499.81;10309308;28;20034;-90
2021/12/23 06:25:49;;;;;;;25.40;14.50;;;;;;;-5.18;100.00;100794.69;10309906;28;20092;-90
2021/12/23 06:30:49;;;;;;;27.97;14.60;;;;;;;-3.49;100.00;100938.66;10328478;28;20053;-83
2021/12/23 06:35:50;;;;;;;24.20;14.27;;;;;;;-3.92;100.00;100832.84;10370984;28;20079;-84
2021/12/23 06:40:51;;;;;;;24.00;13.97;;;;;;;-3.60;100.00;100935.38;10347834;28;20064;-90
2021/12/23 06:45:51;;;;;;;25.83;15.20;;;;;;;-5.45;100.00;100738.44;10342333;28;20018;-90
2021/12/23 06:50:55;;;;;;;25.67;14.73;;;;;;;-5.22;100.00;100760.25;10364619;28;20033;-92
2021/12/23 06:55:56;;;;;;;25.13;14.40;;;;;;;-3.50;100.00;100860.75;10351724;28;20091;-90
2021/12/23 07:00:56;;;;;;;25.97;14.87;;;;;;;-6.94;100.00;100307.59;10316414;28;20073;-90
2021/12/23 07:06:05;;;;;;;29.90;14.53;;;;;;;-3.48;100.00;100875.72;10316296;28;20037;-90
2021/12/23 07:11:05;;;;;;;29.40;14.93;;;;;;;-3.75;100.00;100832.91;10334750;28;20034;-90
2021/12/23 07:16:06;;;;;;;34.63;16.00;;;;;;;-3.74;100.00;100920.66;10341645;28;20065;-90
2021/12/23 07:21:06;;;;;;;29.70;15.30;;;;;;;-6.31;100.00;100472.59;10330091;28;20116;-83
2021/12/23 07:26:07;;;;;;;26.00;14.50;;;;;;;-5.60;100.00;100567.31;10344527;28;20407;-83
2021/12/23 07:31:07;;;;;;;26.47;15.47;;;;;;;-2.31;100.00;100965.56;10328238;28;20131;-91
2021/12/23 07:36:08;;;;;;;25.30;14.03;;;;;;;-4.87;100.00;100496.22;10315598;28;20069;-91
2021/12/23 07:41:09;;;;;;;26.43;15.00;;;;;;;-5.20;100.00;100533.66;10349050;28;20033;-91
2021/12/23 07:46:09;;;;;;;32.70;17.20;;;;;;;-3.09;100.00;101026.00;10355280;28;20065;-91
2021/12/23 07:51:10;;;;;;;30.80;16.77;;;;;;;-3.88;100.00;100810.00;10355248;28;20410;-91
2021/12/23 07:56:11;;;;;;;28.97;15.90;;;;;;;-6.37;100.00;100441.09;10355014;28;20084;-91
2021/12/23 08:01:11;;;;;;;29.57;16.67;;;;;;;-2.84;100.00;100872.50;10353376;28;20069;-83
2021/12/23 08:06:12;;;;;;;30.53;17.07;;;;;;;-2.10;100.00;100972.31;10364670;28;20132;-83
2021/12/23 08:11:12;;;;;;;25.90;15.83;;;;;;;-5.21;100.00;100443.41;10343214;28;20152;-83
2021/12/23 08:16:12;;;;;;;29.87;18.53;;;;;;;-2.61;100.00;100910.44;10316764;28;20045;-91
2021/12/23 08:21:13;;;;;;;30.47;16.83;;;;;;;-3.52;100.00;100745.19;10314005;28;20173;-91
2021/12/23 08:26:16;;;;;;;32.40;17.90;;;;;;;-3.05;100.00;100795.72;10310344;28;20418;-83
2021/12/23 08:31:17;;;;;;;30.27;16.77;;;;;;;-6.10;100.00;100332.94;10342157;28;20086;-83
2021/12/23 08:36:20;;;;;;;31.47;19.03;;;;;;;-4.88;100.00;100565.19;10309438;28;20074;-83
2021/12/23 08:41:20;;;;;;;31.33;18.37;;;;;;;-2.05;100.00;100929.47;10310206;28;20065;-84
2021/12/23 08:46:21;;;;;;;33.47;17.60;;;;;;;-3.05;100.00;100758.00;10328928;28;20069;-92
2021/12/23 08:51:22;;;;;;;34.13;19.43;;;;;;;-4.39;100.00;100766.03;10340890;28;20030;-91
2021/12/23 08:56:23;;;;;;;35.63;19.67;;;;;;;-3.56;100.00;100726.84;10322704;28;20057;-90
2021/12/23 09:01:23;;;;;;;35.13;19.93;;;;;;;-1.42;100.00;101081.75;10312849;28;20061;-90
2021/12/23 09:06:24;;;;;;;33.50;19.50;;;;;;;-4.70;100.00;100535.53;10328379;28;20033;-91
2021/12/23 09:11:24;;;;;;;34.87;19.57;;;;;;;-4.53;100.00;100488.03;10312146;28;20042;-89
2021/12/23 09:16:25;;;;;;;34.80;19.27;;;;;;;-2.33;100.00;100892.06;10311176;28;20046;-92
2021/12/23 09:21:25;;;;;;;30.73;18.63;;;;;;;-2.95;100.00;100977.91;10345001;28;20478;-95
2021/12/23 09:26:27;;;;;;;31.93;18.57;;;;;;;-5.41;100.00;100396.41;10326873;28;20068;-84
2021/12/23 09:36:46;;;;;;;37.90;19.57;;;;;;;-3.21;100.00;100720.31;10348974;28;20424;-84
2021/12/23 09:41:47;;;;;;;35.83;19.77;;;;;;;-6.05;100.00;100313.72;10343384;28;20120;-84
2021/12/23 09:46:47;;;;;;;38.97;20.50;;;;;;;-2.92;100.00;100756.66;10347941;28;20041;-83
2021/12/23 09:52:04;;;;;;;35.73;19.73;;;;;;;-1.37;100.00;100962.38;10344555;28;20153;-83
2021/12/23 09:57:04;;;;;;;37.33;19.73;;;;;;;-5.63;100.00;100272.59;10323528;28;20042;-94
2021/12/23 10:02:05;;;;;;;39.40;20.87;;;;;;;-5.97;100.00;100359.31;10343815;28;20445;-94
2021/12/23 10:07:05;;;;;;;41.73;22.40;;;;;;;-3.61;100.00;100622.41;10329004;28;20034;-90
2021/12/23 10:33:47;;;;;;;49.97;25.13;;;;;;;-1.27;100.00;101006.25;10398350;28;19956;-85
2021/12/23 10:38:49;;;;;;;48.03;26.43;;;;;;;-7.06;100.00;100093.97;10367946;28;20152;-85
2021/12/23 10:43:59;;;;;;;56.10;26.67;;;;;;;-4.11;100.00;100459.38;10392138;28;20499;-93
2021/12/23 10:54:22;;;;;;;57.33;29.63;;;;;;;-8.26;100.00;99895.16;10397844;28;20042;-84
2021/12/23 10:59:26;;;;;;;56.47;29.20;;;;;;;-5.82;100.00;100375.59;10395527;28;20058;-84
2021/12/23 11:04:27;;;;;;;59.90;29.07;;;;;;;-3.53;100.00;100738.13;10364078;28;20033;-85
2021/12/23 11:09:39;;;;;;;61.07;29.30;;;;;;;-4.97;100.00;100388.13;10372663;28;20037;-85
2021/12/23 11:41:34;;;;;;;67.00;33.03;;;;;;;-3.76;100.00;100474.28;10349937;28;20385;-93
2021/12/23 11:46:57;;;;;;;80.63;36.43;;;;;;;-5.08;100.00;100376.69;10336301;28;20033;-92
2021/12/23 11:51:57;;;;;;;73.77;34.53;;;;;;;-5.92;100.00;100141.69;10320746;28;20034;-92
2021/12/23 11:57:03;;;;;;;79.60;35.83;;;;;;;-5.30;100.00;100119.72;10314588;28;20129;-93
2021/12/23 12:02:22;;;;;;;74.90;34.53;;;;;;;-3.38;100.00;100504.13;10344674;28;20037;-87
2021/12/23 12:07:23;;;;;;;78.57;33.37;;;;;;;-4.63;100.00;100432.78;10344303;28;20029;-86
2021/12/23 12:12:23;;;;;;;84.90;37.93;;;;;;;-6.93;100.00;99907.03;10331952;28;20052;-87
2021/12/23 12:17:27;;;;;;;89.90;40.73;;;;;;;-4.52;100.00;100312.44;10359658;28;20107;-91
2021/12/23 12:22:58;;;;;;;85.07;37.80;;;;;;;-1.19;100.00;100744.19;10357958;28;20052;-93
2021/12/23 12:28:00;;;;;;;87.83;38.13;;;;;;;-3.48;100.00;100356.28;10381830;28;20046;-86
2021/12/23 12:33:13;;;;;;;81.37;35.47;;;;;;;-1.18;100.00;100718.81;10398519;28;20405;-87
2021/12/23 12:38:18;;;;;;;95.70;39.13;;;;;;;-9.56;100.00;99473.69;10400014;28;20037;-88
2021/12/23 12:49:24;;;;;;;87.20;39.53;;;;;;;-4.36;100.00;100311.56;10402497;28;20041;-87
2021/12/23 12:54:33;;;;;;;88.57;38.93;;;;;;;-5.63;100.00;100097.47;10391853;28;20036;-92
2021/12/23 12:59:44;;;;;;;92.93;40.87;;;;;;;-3.03;100.00;100625.88;10368857;28;20041;-86
2021/12/23 13:04:50;;;;;;;99.53;40.27;;;;;;;-3.56;100.00;100418.22;10367766;28;20132;-87
2021/12/23 13:10:04;;;;;;;95.93;40.43;;;;;;;-3.34;100.00;100343.94;10382818;28;20034;-88
2021/12/23 13:15:18;;;;;;;86.83;40.77;;;;;;;-3.22;100.00;100352.47;10383629;28;20408;-88
2021/12/23 13:20:19;;;;;;;95.37;41.37;;;;;;;-5.39;100.00;100067.94;10399304;28;20439;-91
2021/12/23 13:25:19;;;;;;;98.60;40.83;;;;;;;-7.32;100.00;99825.59;10358445;28;20100;-87
2021/12/23 13:30:20;;;;;;;91.37;41.30;;;;;;;-6.09;100.00;99867.53;10338444;28;20056;-91
2021/12/23 13:35:21;;;;;;;90.13;40.23;;;;;;;-2.35;100.00;100592.13;10327812;28;20034;-90
2021/12/23 13:40:29;;;;;;;89.03;39.33;;;;;;;-6.60;100.00;99783.94;10324235;28;20485;-89
2021/12/23 13:45:31;;;;;;;89.17;40.07;;;;;;;-5.46;100.00;100123.25;10316394;28;20026;-92
2021/12/23 13:50:32;;;;;;;89.43;40.70;;;;;;;-7.65;100.00;99554.72;10327371;28;20042;-91
2021/12/23 13:55:35;;;;;;;92.10;37.07;;;;;;;-4.49;100.00;100112.44;10343335;28;20120;-87
2021/12/23 14:00:43;;;;;;;93.97;39.27;;;;;;;-7.26;100.00;99813.38;10384541;28;20061;-89
2021/12/23 14:05:50;;;;;;;101.93;42.67;;;;;;;-5.40;100.00;100060.03;10334108;28;20132;-90
2021/12/23 14:10:53;;;;;;;94.63;42.70;;;;;;;-7.93;100.00;99672.63;10351316;28;20048;-88
2021/12/23 14:16:03;;;;;;;;;;;;;;;;;;;;;
2021/12/23 14:26:45;;;;;;;90.63;40.17;;;;;;;-5.41;100.00;100066.44;10344139;28;20096;-92
2021/12/23 14:32:08;;;;;;;99.73;41.97;;;;;;;-7.07;100.00;99627.63;10310801;28;20053;-94
2021/12/23 14:37:29;;;;;;;103.30;45.10;;;;;;;-3.06;100.00;100309.28;10313896;28;20073;-92
2021/12/23 14:43:08;;;;;;;;;;;;;;;;;;;;;
2021/12/23 14:55:03;;;;;;;91.50;42.93;;;;;;;-6.19;100.00;99781.16;10363035;28;20116;-92
2021/12/23 15:00:31;;;;;;;113.80;44.20;;;;;;;-7.46;100.00;99627.53;10349628;28;20030;-88
2021/12/23 15:05:32;;;;;;;110.50;46.17;;;;;;;-4.18;100.00;100264.81;10368523;28;20026;-87
2021/12/23 15:11:20;;;;;;;113.50;42.97;;;;;;;-2.60;100.00;100256.34;10339735;28;20044;-88
2021/12/23 15:16:23;;;;;;;106.93;43.63;;;;;;;-2.94;100.00;100462.38;10342030;28;20041;-88
2021/12/23 15:21:42;;;;;;;117.80;45.33;;;;;;;-4.10;100.00;100098.09;10351305;28;20065;-88
2021/12/23 15:26:58;;;;;;;107.60;43.63;;;;;;;-7.30;100.00;99702.38;10356695;28;20048;-92
2021/12/23 15:32:10;;;;;;;116.10;46.43;;;;;;;-4.47;100.00;100040.56;10353463;28;20117;-88
2021/12/23 15:37:25;;;;;;;101.87;44.07;;;;;;;-6.88;100.00;99679.09;10353022;28;20063;-93
2021/12/23 15:42:46;;;;;;;114.90;45.20;;;;;;;-7.60;100.00;99675.31;10346029;28;20041;-92
2021/12/23 15:47:49;;;;;;;118.43;44.00;;;;;;;-4.73;100.00;100092.72;10347419;28;20367;-87
2021/12/23 15:52:51;;;;;;;125.67;45.90;;;;;;;-8.11;100.00;99496.47;10343602;28;20449;-87
2021/12/23 15:57:55;;;;;;;116.70;45.47;;;;;;;-6.78;100.00;99645.81;10348754;28;20065;-89
2021/12/23 16:02:58;;;;;;;122.07;47.50;;;;;;;-5.67;100.00;99810.03;10335630;28;20070;-88
2021/12/23 16:08:07;;;;;;;117.20;46.70;;;;;;;-5.36;100.00;99752.88;10358731;28;20037;-87
2021/12/23 16:13:08;;;;;;;123.50;44.83;;;;;;;-2.09;100.00;100288.84;10344548;28;20081;-88
2021/12/23 16:18:09;;;;;;;127.47;47.60;;;;;;;-4.47;100.00;99938.47;10341607;28;20116;-87
2021/12/23 16:23:12;;;;;;;116.67;46.97;;;;;;;-5.97;100.00;99643.72;10354451;28;20037;-87
2021/12/23 16:28:13;;;;;;;134.03;49.80;;;;;;;-1.54;100.00;100460.25;10405524;28;20068;-86
2021/12/23 16:33:15;;;;;;;132.00;50.80;;;;;;;-7.10;100.00;99420.16;10408279;28;20043;-91
2021/12/23 16:38:19;;;;;;;147.17;50.90;;;;;;;-4.86;100.00;99729.97;10384177;28;20124;-89
2021/12/23 16:43:20;;;;;;;160.23;53.87;;;;;;;-4.88;100.00;99957.53;10366953;28;20124;-87
2021/12/23 16:48:21;;;;;;;159.90;51.93;;;;;;;-3.46;100.00;100011.66;10366149;28;20080;-87
2021/12/23 16:53:23;;;;;;;179.40;57.67;;;;;;;-3.26;100.00;99944.66;10366711;28;20033;-89
2021/12/23 16:58:23;;;;;;;179.03;56.47;;;;;;;-6.43;100.00;99657.03;10366442;28;20048;-89
2021/12/23 17:03:24;;;;;;;209.03;61.80;;;;;;;-7.58;100.00;99315.16;10367650;28;20511;-89
2021/12/23 17:08:25;;;;;;;197.77;58.93;;;;;;;-4.90;100.00;99599.81;10382728;28;20082;-89
2021/12/23 17:13:25;;;;;;;197.43;58.63;;;;;;;-7.66;100.00;99267.13;10366316;28;20091;-87
2021/12/23 17:18:36;;;;;;;225.63;61.30;;;;;;;-6.39;100.00;99473.56;10365992;28;20492;-89
2021/12/23 17:23:37;;;;;;;238.73;65.17;;;;;;;-2.88;100.00;100079.19;10368000;28;20036;-90
2021/12/23 17:28:37;;;;;;;200.63;61.87;;;;;;;-4.59;100.00;99757.25;10398524;28;20072;-87
2021/12/23 17:33:38;;;;;;;250.60;66.30;;;;;;;-2.21;100.00;100206.72;10397850;28;20536;-89
2021/12/23 17:38:45;;;;;;;270.20;68.77;;;;;;;-3.93;100.00;99981.34;10366796;28;20079;-88
2021/12/23 17:43:46;;;;;;;282.50;70.53;;;;;;;-5.41;100.00;99521.91;10383394;28;20033;-91
2021/12/23 17:48:47;;;;;;;253.63;69.10;;;;;;;-4.33;100.00;99698.53;10381704;28;20393;-90
2021/12/23 17:53:48;;;;;;;306.03;72.77;;;;;;;-3.87;100.00;99799.63;10364922;28;20064;-85
2021/12/23 17:58:49;;;;;;;374.37;77.87;;;;;;;-0.89;100.00;100333.47;10380770;28;20029;-86
2021/12/23 18:03:50;;;;;;;346.27;78.43;;;;;;;-2.11;100.00;100069.75;10396638;28;20621;-86
2021/12/23 18:08:52;;;;;;;348.87;79.80;;;;;;;-3.54;100.00;99925.66;10380268;28;20036;-85
2021/12/23 18:13:53;;;;;;;371.00;78.23;;;;;;;-2.16;100.00;100050.63;10364542;28;20056;-88
2021/12/23 18:18:55;;;;;;;355.17;81.07;;;;;;;-2.41;100.00;99972.78;10364297;28;20048;-86
2021/12/23 18:23:55;;;;;;;383.43;82.87;;;;;;;-3.41;100.00;99855.03;10364383;28;20064;-86
2021/12/23 18:29:00;;;;;;;359.47;85.93;;;;;;;-3.51;100.00;99677.75;10383969;28;20560;-89
2021/12/23 18:34:00;;;;;;;385.50;89.03;;;;;;;-4.04;100.00;99589.28;10372976;28;20398;-87
2021/12/23 18:39:09;;;;;;;420.03;85.83;;;;;;;-3.82;100.00;99739.88;10388400;28;20095;-89
2021/12/23 18:44:10;;;;;;;448.47;90.10;;;;;;;-2.52;100.00;99893.28;10373185;28;20052;-89
2021/12/23 18:49:10;;;;;;;306.57;74.63;;;;;;;-1.96;100.00;99862.81;10371696;28;20100;-87
2021/12/23 18:54:11;;;;;;;368.10;80.73;;;;;;;-3.01;100.00;99728.94;10371970;28;20037;-90
2021/12/23 18:59:11;;;;;;;504.63;96.90;;;;;;;-5.01;100.00;99339.97;10388577;28;20500;-86
2021/12/23 19:04:46;;;;;;;364.43;83.50;;;;;;;-2.65;100.00;99885.91;10372029;28;20548;-89
2021/12/23 19:09:33;;;;;;;312.97;73.93;;;;;;;-4.11;100.00;99540.03;10392777;28;20034;-89
2021/12/23 19:14:33;;;;;;;346.33;82.60;;;;;;;-4.97;100.00;99335.88;10370749;28;20073;-86
2021/12/23 19:19:34;;;;;;;327.10;79.40;;;;;;;-1.28;100.00;99824.31;10402824;28;20045;-85
2021/12/23 19:24:34;;;;;;;349.30;82.30;;;;;;;-1.09;100.00;99882.16;10385072;28;20032;-89
2021/12/23 19:29:35;;;;;;;354.67;85.68;;;;;;;-2.73;100.00;99635.50;10329494;28;20037;-87
2021/12/23 19:34:36;;;;;;;330.03;77.73;;;;;;;-3.37;100.00;99482.25;10329394;28;20119;-88
2021/12/23 19:39:36;;;;;;;294.13;74.00;;;;;;;-0.03;100.00;99932.88;10345119;28;20038;-90
2021/12/23 19:44:37;;;;;;;303.80;77.55;;;;;;;-2.20;100.00;99640.31;10330408;28;20037;-85
2021/12/23 19:49:39;;;;;;;302.87;71.67;;;;;;;-2.72;100.00;99534.78;10329292;28;20037;-86
2021/12/23 19:54:40;;;;;;;293.07;70.13;;;;;;;-2.38;100.00;99551.88;10329827;28;20426;-90
2021/12/23 19:59:40;;;;;;;228.07;65.53;;;;;;;-2.54;100.00;99677.06;10329455;28;20176;-91
2021/12/23 20:04:41;;;;;;;212.03;64.57;;;;;;;-2.71;100.00;99547.22;10329342;28;20120;-92
2021/12/23 20:09:41;;;;;;;193.13;55.73;;;;;;;-0.54;100.00;99855.03;10313443;28;20061;-91
2021/12/23 20:14:42;;;;;;;203.60;54.77;;;;;;;-4.04;100.00;99272.09;10313292;28;20046;-90
2021/12/23 20:19:42;;;;;;;162.45;52.95;;;;;;;-1.51;100.00;99687.84;10328121;28;20069;-89
2021/12/23 20:24:43;;;;;;;173.70;50.93;;;;;;;-0.34;100.00;99925.38;10327894;28;20466;-87
2021/12/23 20:29:46;;;;;;;178.80;54.92;;;;;;;-1.49;100.00;99652.53;10327134;28;20056;-90
2021/12/23 20:34:46;;;;;;;176.50;52.33;;;;;;;0.82;100.00;99984.41;10328194;28;20095;-88
2021/12/23 20:39:49;;;;;;;168.93;52.33;;;;;;;-0.50;100.00;99826.53;10321725;28;20068;-90
2021/12/23 20:44:50;;;;;;;181.25;55.45;;;;;;;-2.13;100.00;99554.88;10343285;28;20026;-88
2021/12/23 20:49:55;;;;;;;171.23;55.23;;;;;;;-2.03;100.00;99710.91;10323980;28;20030;-88
2021/12/23 20:55:06;;;;;;;175.97;56.70;;;;;;;-1.46;100.00;99814.91;10321379;28;20030;-91
2021/12/23 21:00:13;;;;;;;183.10;57.00;;;;;;;-1.53;100.00;99706.09;10338369;28;20026;-90
2021/12/23 21:05:15;;;;;;;177.80;56.07;;;;;;;-3.29;100.00;99457.88;10331066;28;20033;-89
2021/12/23 21:10:16;;;;;;;187.95;55.90;;;;;;;-0.86;100.00;99752.09;10331401;28;20065;-88
2021/12/23 21:15:20;;;;;;;175.97;57.70;;;;;;;-1.90;100.00;99543.72;10312232;28;20482;-90
2021/12/23 21:20:20;;;;;;;163.93;54.53;;;;;;;0.15;100.00;100063.00;10353131;28;20060;-88
2021/12/23 21:25:21;;;;;;;152.40;53.13;;;;;;;-2.37;100.00;99461.09;10323433;28;20359;-86
2021/12/23 21:30:22;;;;;;;149.50;50.80;;;;;;;-1.50;100.00;99645.47;10365112;28;20107;-92
2021/12/23 21:35:22;;;;;;;137.03;50.67;;;;;;;-2.28;100.00;99490.34;10349825;28;20048;-91
2021/12/23 21:40:23;;;;;;;150.45;52.72;;;;;;;-0.87;100.00;99736.91;10350417;28;20555;-92
2021/12/23 21:45:24;;;;;;;131.17;48.77;;;;;;;0.35;100.00;99914.13;10365462;28;20393;-92
2021/12/23 21:50:26;;;;;;;142.70;49.22;;;;;;;0.89;100.00;100012.34;10364729;28;20040;-87
2021/12/23 21:55:28;;;;;;;134.90;49.00;;;;;;;-4.49;100.00;99328.84;10349913;28;20048;-92
2021/12/23 22:00:32;;;;;;;115.53;44.83;;;;;;;-1.35;100.00;99567.81;10349434;28;20029;-93
2021/12/23 22:05:34;;;;;;;126.15;44.97;;;;;;;-1.51;100.00;99514.22;10349138;28;20048;-88
2021/12/23 22:10:35;;;;;;;127.85;48.08;;;;;;;-0.70;100.00;99800.34;10364149;28;20026;-87
2021/12/23 22:15:38;;;;;;;141.50;48.45;;;;;;;-4.14;100.00;99293.94;10364210;28;20034;-91
2021/12/23 22:20:38;;;;;;;140.50;48.03;;;;;;;-1.78;100.00;99659.09;10349354;28;20122;-91
2021/12/23 22:25:39;;;;;;;135.93;47.55;;;;;;;-0.07;100.00;99958.69;10301709;28;1179725;-91
2021/12/23 22:30:39;;;;;;;145.67;49.70;;;;;;;-3.37;100.00;99213.16;10340143;28;20038;-91
2021/12/23 22:35:40;;;;;;;145.23;50.90;;;;;;;-2.96;100.00;99272.22;10329113;28;20393;-86
2021/12/23 22:40:41;;;;;;;158.13;49.80;;;;;;;0.87;100.00;99916.88;10324632;28;20033;-88
2021/12/23 22:45:41;;;;;;;141.47;51.67;;;;;;;-0.76;100.00;99643.59;10324203;28;20060;-87
2021/12/23 22:50:49;;;;;;;158.43;48.72;;;;;;;-3.99;100.00;99118.28;10326104;28;20516;-87
2021/12/23 22:55:52;;;;;;;165.02;51.05;;;;;;;-4.40;100.00;99001.81;10337789;28;20040;-88
2021/12/23 23:00:53;;;;;;;158.30;49.87;;;;;;;1.80;100.00;100100.91;10307458;28;20056;-87
2021/12/23 23:05:56;;;;;;;150.50;46.05;;;;;;;0.62;100.00;99895.09;10324410;28;20045;-92
2021/12/23 23:11:02;;;;;;;150.18;50.28;;;;;;;-0.91;100.00;99568.16;10326351;28;20069;-92
2021/12/23 23:21:34;;;;;;;149.17;49.50;;;;;;;1.95;100.00;100209.22;10351229;28;20171;-88
2021/12/23 23:37:39;;;;;;;132.43;46.93;;;;;;;-0.37;100.00;99606.66;10335814;28;20050;-92
2021/12/23 23:47:55;;;;;;;137.35;46.63;;;;;;;0.19;100.00;99568.09;10333742;28;20026;-91
2021/12/23 23:53:00;;;;;;;114.90;42.35;;;;;;;-3.59;100.00;99038.50;10315086;28;20471;-92
2021/12/23 23:58:01;;;;;;;135.60;42.47;;;;;;;-1.80;100.00;99466.94;10315782;28;20053;-92
